首页
METAR-TAF:

METAR-TAF

机场 :

普尔曼-莫斯科区域机场

普尔曼 / 莫斯科, 华盛顿, 美国

纬度: 46-44-38N, 经度: 117-06-35W, 海拔: 779米

当前天气观测

该预报发布于28分钟前的11:53 UTC
风速10节,风向西转西南,有时为21节阵风
温度 8°C
湿度 61%
气压 1014 hPa
能見度: 16.1公里
天空无云

METAR: KPUW 151153Z AUTO 25010G21KT 10SM CLR 08/01 A2994 RMK AO2 SLP135 T00780011 10156 20078 51018

时间: 05:21 (12:21 UTC)

预报

该预报发布于1小时和1分钟前的11:20 UTC
预报有效从15日的 12点(UTC)到 16日的 12点(UTC)
风速12节,风向西转西南,有时为22节阵风
能見度: 10公里
少量云层高于12000英尺
散云层高于25000英尺
从 15日的 1600点(UTC)
风速18节,风向西转西南,有时为27节阵风
能見度: 10公里
少量云层高于3000英尺
多云层高于25000英尺
从 16日的 0600点(UTC)
风速16节,风向西转西南,有时为22节阵风
能見度: 10公里
阴天层高于25000英尺

TAF: KPUW 151120Z 1512/1612 25012G22KT P6SM FEW120 SCT250 FM151600 25018G27KT P6SM FEW030 BKN250 FM160600 24016G22KT P6SM OVC250

超过4000个机场的气象观测和天气预报(METAR&TAF报告)。

可查询的气象台以黄色和红色小点在地图上表示。

将鼠标移到小点上方,可查看气象台名称。

然后点击查看天气观测和预报。

如需切换地图:点击带黑十字的绿色按钮放大地图;点击带横线的绿色按钮缩小地图;或者点击绿色箭头查看邻近地区的地图。


METAR-TAF: